Charyn Airfield

Jump to: basic info | weather | comments

Related pages: nearby airports | nearby navaids

Basic information (top)

Location: lon 43.720001, lat 79.474998
Status: small_airport

Weather (top)

Current conditions for Yining Airport 82nm (151km) E (rec'd 2014/08/26 16:00Z):

ZWYN 261600Z 27006MPS 9999 SCT040 24/07 Q1014 NOSIG

Airport forecast for Almaty Airport 108nm (200km) W (rec'd 2014/11/23 12:18Z):

TAF TAF UAAA 231100Z 2312/2412 16004MPS 0600 FZFG FU VV002 TX08/2408Z TNM04/2401Z 
      TEMPO 2312/2405 0200 VV001 
      BECMG 2405/2406 21005MPS 3000 BR SCT007 BKN020 
      TEMPO 2408/2412 26010MPS 5000 -SHRA BKN010CB OVC100

Latest comments (top)

Name of the airfield: Name is unspecified. [read]

More... (top)

See also NOTAMs and nearby airports and navaids, or visit the Charyn Airfield page at the main OurAirports website..